CDT,Max TemperatureF,Mean TemperatureF,Min TemperatureF,Max Dew PointF,MeanDew PointF,Min DewpointF,Max Humidity, Mean Humidity, Min Humidity, Max Sea Level PressureIn, Mean Sea Level PressureIn, Min Sea Level PressureIn, Max VisibilityMiles, Mean VisibilityMiles, Min VisibilityMiles, Max Wind SpeedMPH, Mean Wind SpeedMPH, Max Gust SpeedMPH,PrecipitationIn, CloudCover, Events, WindDirDegrees
2012-8-1,94,86,77,77,75,74,94,73,52,30.00,29.94,29.87,10,9,7,10,3,16,0.00,0,,206
2012-8-2,94,86,77,77,75,73,97,75,52,29.96,29.89,29.84,10,10,6,13,5,18,T,0,,209
2012-8-3,95,86,77,77,75,73,97,75,52,29.96,29.90,29.86,10,9,5,12,5,21,0.00,0,,198
2012-8-4,95,86,76,76,74,70,94,70,46,30.03,29.98,29.91,10,9,2,20,3,25,0.13,1,Rain,181
2012-8-5,95,85,74,77,75,72,100,75,49,30.13,30.06,30.00,10,7,4,13,3,16,0.05,1,Rain,114
2012-8-6,97,86,75,77,74,73,100,74,48,30.08,30.02,29.94,10,7,2,10,3,14,0.00,1,,286
2012-8-7,91,82,73,78,73,71,94,77,59,30.03,29.96,29.90,10,7,1,15,4,18,1.37,4,Rain-Thunderstorm,317
2012-8-8,96,85,74,76,74,73,100,76,52,30.02,29.96,29.89,10,8,3,15,2,20,0.00,1,,164
2012-8-9,93,83,72,77,74,70,94,75,56,29.97,29.91,29.83,10,9,6,20,5,26,T,1,Thunderstorm,221
2012-8-10,95,83,71,79,72,66,94,74,53,29.94,29.86,29.75,10,8,2,20,6,28,0.93,3,Rain-Thunderstorm,184
2012-8-11,93,82,71,76,72,71,100,76,52,29.97,29.91,29.85,10,9,5,10,2,13,0.01,0,,88
2012-8-12,93,83,73,77,74,71,94,73,52,30.01,29.96,29.90,10,9,7,9,3,13,0.00,1,,147
2012-8-13,93,85,76,76,75,73,91,72,52,30.01,29.95,29.88,10,10,8,14,6,20,0.00,1,,203
2012-8-14,97,88,79,76,74,70,91,68,45,29.96,29.92,29.86,10,10,10,13,4,22,0.00,1,Thunderstorm,255
2012-8-15,96,86,76,76,73,68,94,70,46,29.99,29.94,29.89,10,9,7,10,4,13,T,2,Rain,207
2012-8-16,97,86,75,77,73,69,91,67,43,30.04,29.98,29.92,10,10,7,13,4,17,0.00,0,,193
2012-8-17,92,83,73,77,73,66,94,75,56,30.03,29.96,29.90,10,10,9,17,3,24,0.00,1,Thunderstorm,231
2012-8-18,91,82,72,75,72,70,94,77,59,29.94,29.89,29.85,10,8,0,29,5,36,0.54,4,Fog-Rain-Thunderstorm,188
2012-8-19,88,80,72,73,71,68,100,78,55,29.94,29.89,29.83,10,9,5,9,3,13,0.00,4,,239
2012-8-20,88,79,70,72,71,67,100,75,50,29.92,29.90,29.88,10,8,3,13,3,15,0.04,3,Rain,359
2012-8-21,86,77,67,70,68,65,100,76,51,30.04,30.00,29.93,10,8,3,9,3,13,0.00,0,,41
2012-8-22,90,79,68,67,64,58,90,62,34,30.10,30.05,30.01,10,9,5,12,3,17,0.00,0,,70
2012-8-23,90,78,65,71,66,63,93,70,47,30.08,30.03,29.98,10,8,3,14,5,18,0.00,1,,117
2012-8-24,88,80,72,75,72,70,93,77,61,30.01,29.97,29.93,10,10,2,16,7,26,0.11,5,Rain-Thunderstorm,148
2012-8-25,86,78,70,74,71,69,100,85,70,30.03,29.99,29.94,10,8,1,20,6,26,0.24,4,Rain-Thunderstorm,144
2012-8-26,93,83,72,73,71,66,94,69,44,30.09,30.02,29.96,10,10,7,9,3,14,0.00,1,,127
2012-8-27,95,84,72,73,71,67,100,71,41,30.04,29.96,29.87,10,8,2,10,3,14,0.00,0,,29
2012-8-28,93,82,71,71,69,66,90,68,46,29.88,29.79,29.70,10,10,8,21,10,32,0.00,1,,9
2012-8-29,87,81,75,73,71,70,87,74,61,29.70,29.58,29.44,10,9,2,32,18,51,0.20,6,Rain,9
2012-8-30,77,76,74,74,73,71,100,91,82,29.81,29.50,29.28,10,4,2,25,12,40,0.67,8,Rain,233
2012-8-31,90,82,74,79,74,71,94,79,63,30.06,29.93,29.80,10,7,1,18,8,28,1.15,5,Rain-Thunderstorm,173